Time;durP1;ratioP1;P1;durP2;ratioP2;P2;SDS_P1;SDS_P2;PMS_P1;PMS_P2;Temp;Humidity;BMP_temperature;BMP_pressure;BME280_temperature;BME280_humidity;BME280_pressure;Samples;Min_cycle;Max_cycle;Signal;HPM_P1;HPM_P2
2023/07/19 00:03:45;;;;;;;19.02;9.40;;;16.80;99.90;;;;;;8299197;28;20057;-78
2023/07/19 00:07:46;;;;;;;17.17;8.95;;;16.70;99.90;;;;;;8298940;28;20022;-79
2023/07/19 00:11:47;;;;;;;13.73;9.30;;;16.60;99.90;;;;;;8296934;28;20539;-79
2023/07/19 00:15:48;;;;;;;13.27;9.23;;;16.60;99.90;;;;;;8295052;28;20017;-79
2023/07/19 00:19:48;;;;;;;16.25;10.32;;;16.60;99.90;;;;;;8300423;28;20077;-79
2023/07/19 00:23:49;;;;;;;14.63;9.55;;;16.40;99.90;;;;;;8315666;28;20025;-78
2023/07/19 00:27:49;;;;;;;19.60;10.35;;;16.30;99.90;;;;;;8294357;28;20030;-80
2023/07/19 00:31:50;;;;;;;15.07;10.30;;;16.30;99.90;;;;;;8315429;28;20037;-79
2023/07/19 00:35:52;;;;;;;14.40;10.13;;;16.30;99.90;;;;;;8299691;28;20022;-79
2023/07/19 00:39:52;;;;;;;17.60;10.13;;;16.30;99.90;;;;;;8290964;28;20032;-79
2023/07/19 00:43:53;;;;;;;12.10;9.45;;;16.40;99.90;;;;;;8314834;28;20399;-80
2023/07/19 00:47:56;;;;;;;14.80;9.82;;;16.30;99.90;;;;;;8298282;28;20034;-80
2023/07/19 00:52:00;;;;;;;13.35;9.18;;;16.30;99.90;;;;;;8293846;28;20025;-79
2023/07/19 00:56:01;;;;;;;15.82;8.77;;;16.20;99.90;;;;;;8295012;28;20391;-79
2023/07/19 01:00:03;;;;;;;13.68;9.13;;;16.30;99.90;;;;;;8309790;28;20033;-80
2023/07/19 01:04:04;;;;;;;14.73;8.98;;;16.30;99.90;;;;;;8294728;28;20030;-80
2023/07/19 01:08:05;;;;;;;17.05;9.70;;;16.30;99.90;;;;;;8301772;28;20033;-80
2023/07/19 01:12:06;;;;;;;16.67;9.05;;;16.30;99.90;;;;;;8295584;28;20041;-80
2023/07/19 01:16:06;;;;;;;19.75;9.77;;;16.10;99.90;;;;;;8314425;28;20029;-80
2023/07/19 01:20:08;;;;;;;14.55;9.27;;;16.00;99.90;;;;;;8294798;28;20108;-80
2023/07/19 01:24:09;;;;;;;14.93;9.13;;;15.90;99.90;;;;;;8300898;28;20038;-80
2023/07/19 01:28:09;;;;;;;14.68;9.85;;;15.90;99.90;;;;;;8296137;28;20459;-80
2023/07/19 01:32:10;;;;;;;18.65;11.18;;;15.80;99.90;;;;;;8297562;28;20530;-80
2023/07/19 01:36:10;;;;;;;12.18;9.25;;;15.90;99.90;;;;;;8296889;28;20033;-81
2023/07/19 01:40:11;;;;;;;18.52;9.15;;;15.90;99.90;;;;;;8294808;28;20397;-81
2023/07/19 01:44:12;;;;;;;19.75;8.77;;;15.90;99.90;;;;;;8299071;28;20034;-80
2023/07/19 01:48:13;;;;;;;19.85;9.88;;;15.90;99.90;;;;;;8295760;28;20034;-81
2023/07/19 01:52:13;;;;;;;14.15;9.32;;;16.00;99.90;;;;;;8311256;28;20034;-80
2023/07/19 01:56:14;;;;;;;19.77;9.35;;;16.00;99.90;;;;;;8310699;28;20036;-78
2023/07/19 02:00:15;;;;;;;13.70;9.30;;;15.80;99.90;;;;;;8293808;28;20034;-81
2023/07/19 02:04:15;;;;;;;17.25;9.07;;;15.60;99.90;;;;;;8299215;28;20036;-80
2023/07/19 02:08:16;;;;;;;13.30;9.30;;;15.80;99.90;;;;;;8309704;28;20022;-79
2023/07/19 02:12:16;;;;;;;12.38;8.18;;;15.80;99.90;;;;;;8296635;28;20021;-81
2023/07/19 02:16:17;;;;;;;16.88;8.75;;;15.70;99.90;;;;;;8302815;28;20018;-80
2023/07/19 02:20:19;;;;;;;14.25;8.68;;;15.70;99.90;;;;;;8299719;28;20029;-80
2023/07/19 02:24:19;;;;;;;13.75;8.85;;;15.50;99.90;;;;;;8299560;28;20022;-80
2023/07/19 02:28:20;;;;;;;16.60;9.15;;;15.30;99.90;;;;;;8299815;28;20415;-78
2023/07/19 02:32:21;;;;;;;15.32;8.82;;;15.30;99.90;;;;;;8303870;28;20014;-80
2023/07/19 02:36:21;;;;;;;19.63;9.00;;;15.30;99.90;;;;;;8299589;28;20053;-80
2023/07/19 02:40:22;;;;;;;21.45;10.27;;;15.30;99.90;;;;;;8295317;28;20400;-79
2023/07/19 02:44:22;;;;;;;19.10;9.38;;;15.40;99.90;;;;;;8318569;28;20025;-77
2023/07/19 02:48:23;;;;;;;16.40;8.98;;;15.50;99.90;;;;;;8299420;28;20088;-80
2023/07/19 02:52:23;;;;;;;18.58;9.55;;;15.40;99.90;;;;;;8298229;28;20025;-79
2023/07/19 02:56:24;;;;;;;15.65;8.82;;;15.30;99.90;;;;;;8302765;28;20045;-80
2023/07/19 03:00:25;;;;;;;16.58;8.85;;;15.30;99.90;;;;;;8297904;28;20022;-80
2023/07/19 03:04:25;;;;;;;14.65;9.02;;;15.40;99.90;;;;;;8297475;28;20026;-78
2023/07/19 03:08:26;;;;;;;14.77;9.18;;;15.30;99.90;;;;;;8297611;28;20204;-80
2023/07/19 03:12:26;;;;;;;15.63;8.90;;;15.30;99.90;;;;;;8306425;28;20030;-79
2023/07/19 03:16:27;;;;;;;14.50;9.02;;;15.30;99.90;;;;;;8304418;28;20108;-80
2023/07/19 03:20:27;;;;;;;15.18;8.48;;;15.10;99.90;;;;;;8304472;28;20076;-77
2023/07/19 03:24:28;;;;;;;14.85;9.30;;;15.10;99.90;;;;;;8295257;28;20877;-77
2023/07/19 03:28:29;;;;;;;20.67;9.25;;;15.10;99.90;;;;;;8303953;28;20030;-78
2023/07/19 03:32:30;;;;;;;16.63;8.93;;;15.20;99.90;;;;;;8295980;28;20029;-78
2023/07/19 03:36:30;;;;;;;17.75;8.60;;;15.10;99.90;;;;;;8299411;28;20108;-80
2023/07/19 03:40:31;;;;;;;12.57;8.10;;;15.10;99.90;;;;;;8300933;28;20089;-78
2023/07/19 03:44:31;;;;;;;19.52;7.65;;;14.90;99.90;;;;;;8299105;28;20124;-78
2023/07/19 03:48:32;;;;;;;18.25;8.75;;;14.90;99.90;;;;;;8295293;28;20029;-78
2023/07/19 03:52:32;;;;;;;14.98;9.30;;;14.90;99.90;;;;;;8294846;28;20022;-78
2023/07/19 03:56:33;;;;;;;14.57;8.88;;;15.00;99.90;;;;;;8294955;28;20053;-79
2023/07/19 04:00:34;;;;;;;17.85;10.27;;;15.10;99.90;;;;;;8311705;28;20522;-80
2023/07/19 04:04:34;;;;;;;17.83;10.48;;;15.20;99.90;;;;;;8294714;28;20060;-79
2023/07/19 04:08:35;;;;;;;15.10;9.00;;;15.60;99.90;;;;;;8299960;28;20108;-79
2023/07/19 04:12:35;;;;;;;13.90;8.55;;;15.70;99.90;;;;;;8291105;28;20025;-79
2023/07/19 04:16:36;;;;;;;16.33;8.55;;;15.90;99.90;;;;;;8294600;28;20037;-77
2023/07/19 04:20:37;;;;;;;12.52;7.80;;;15.90;99.90;;;;;;8291461;28;20049;-79
2023/07/19 04:24:37;;;;;;;13.63;7.43;;;16.00;99.90;;;;;;8294177;28;20041;-78
2023/07/19 04:28:38;;;;;;;13.55;6.95;;;16.40;99.90;;;;;;8296568;28;20407;-84
2023/07/19 04:32:39;;;;;;;10.77;7.45;;;16.30;99.90;;;;;;8315649;28;20017;-85
2023/07/19 04:36:39;;;;;;;11.07;7.45;;;16.30;99.90;;;;;;8301483;28;20029;-83
2023/07/19 04:40:40;;;;;;;11.88;6.88;;;16.60;99.90;;;;;;8297402;28;20022;-85
2023/07/19 04:44:40;;;;;;;11.93;7.43;;;16.70;99.90;;;;;;8296149;28;20053;-84
2023/07/19 04:48:41;;;;;;;13.18;6.45;;;17.10;99.90;;;;;;8309989;28;20488;-84
2023/07/19 04:52:45;;;;;;;11.95;6.43;;;17.20;99.90;;;;;;8296885;28;20447;-86
2023/07/19 04:56:45;;;;;;;13.30;6.50;;;17.40;99.90;;;;;;8296767;28;20018;-84
2023/07/19 05:00:46;;;;;;;9.52;6.20;;;17.90;99.90;;;;;;8297077;28;20084;-84
2023/07/19 05:04:46;;;;;;;9.25;5.85;;;18.00;99.90;;;;;;8295326;28;20053;-85
2023/07/19 05:08:47;;;;;;;7.78;5.63;;;18.80;99.90;;;;;;8297521;28;20033;-82
2023/07/19 05:12:48;;;;;;;9.02;5.35;;;19.60;99.90;;;;;;8298012;28;20021;-82
2023/07/19 05:16:48;;;;;;;8.35;5.38;;;20.40;99.90;;;;;;8311021;28;20024;-86
2023/07/19 05:20:49;;;;;;;8.27;5.80;;;20.90;99.90;;;;;;8295386;28;20021;-86
2023/07/19 05:24:49;;;;;;;10.48;6.00;;;21.30;99.90;;;;;;8291879;28;20028;-86
2023/07/19 05:28:50;;;;;;;10.70;5.60;;;22.30;99.90;;;;;;8282768;28;20053;-84
2023/07/19 05:32:50;;;;;;;9.23;6.00;;;23.10;99.90;;;;;;8308904;28;20068;-85
2023/07/19 05:36:51;;;;;;;9.20;5.72;;;23.50;99.90;;;;;;8293326;28;20021;-85
2023/07/19 05:40:52;;;;;;;13.50;5.95;;;24.20;99.90;;;;;;8293961;28;20070;-84
2023/07/19 05:44:52;;;;;;;10.35;5.53;;;24.20;99.90;;;;;;8289166;28;20483;-84
2023/07/19 05:48:53;;;;;;;12.90;6.38;;;24.40;99.90;;;;;;8296138;28;20105;-86
2023/07/19 05:52:54;;;;;;;11.65;6.20;;;25.00;99.90;;;;;;8300954;28;20499;-84
2023/07/19 05:56:55;;;;;;;10.85;6.70;;;25.80;99.90;;;;;;8299512;28;20105;-83
2023/07/19 06:00:56;;;;;;;13.38;6.20;;;26.30;99.90;;;;;;8300073;28;20033;-83
2023/07/19 06:04:57;;;;;;;10.25;6.03;;;26.50;99.90;;;;;;8300524;28;20439;-83
2023/07/19 06:09:00;;;;;;;13.13;5.90;;;26.80;99.90;;;;;;8290618;28;20029;-84
2023/07/19 06:13:00;;;;;;;13.82;5.60;;;26.60;99.90;;;;;;8298850;28;20153;-84
2023/07/19 06:17:01;;;;;;;11.90;6.28;;;27.00;99.90;;;;;;8299788;28;20026;-85
2023/07/19 06:21:02;;;;;;;9.27;5.80;;;26.90;99.90;;;;;;8318862;28;20183;-85
2023/07/19 06:25:02;;;;;;;13.27;5.65;;;27.20;99.90;;;;;;8297786;28;20037;-86
2023/07/19 06:29:03;;;;;;;8.95;5.15;;;27.60;99.90;;;;;;8299243;28;20070;-86
2023/07/19 06:33:03;;;;;;;9.95;5.28;;;27.60;99.90;;;;;;8298718;28;20109;-86
2023/07/19 06:37:04;;;;;;;7.70;5.03;;;27.80;99.90;;;;;;8297324;28;20030;-88
2023/07/19 06:41:05;;;;;;;7.00;4.28;;;27.50;99.90;;;;;;8298638;28;20041;-84
2023/07/19 06:45:06;;;;;;;9.27;5.20;;;28.10;99.90;;;;;;8298103;28;20095;-84
2023/07/19 06:49:07;;;;;;;7.03;5.32;;;27.80;99.90;;;;;;8296316;28;20040;-84
2023/07/19 06:53:07;;;;;;;9.95;4.80;;;27.20;99.90;;;;;;8299919;28;20487;-85
2023/07/19 06:57:09;;;;;;;7.32;4.78;;;27.50;99.90;;;;;;8297772;28;20028;-86
2023/07/19 07:01:10;;;;;;;8.52;4.25;;;28.30;99.90;;;;;;8295698;28;20396;-84
2023/07/19 07:05:10;;;;;;;8.30;4.80;;;28.40;99.90;;;;;;8294737;28;20021;-85
2023/07/19 07:09:14;;;;;;;12.73;4.80;;;28.80;99.90;;;;;;8299233;28;20032;-85
2023/07/19 07:13:14;;;;;;;5.85;3.78;;;28.80;99.90;;;;;;8308108;28;20025;-85
2023/07/19 07:17:15;;;;;;;7.60;4.68;;;28.70;99.90;;;;;;8298763;28;20033;-84
2023/07/19 07:21:17;;;;;;;7.60;4.35;;;28.10;99.90;;;;;;8299734;28;20511;-83
2023/07/19 07:25:19;;;;;;;9.20;4.57;;;27.60;99.90;;;;;;8300271;28;20113;-84
2023/07/19 07:29:20;;;;;;;6.75;4.13;;;27.70;99.90;;;;;;8299880;28;20038;-83
2023/07/19 07:33:20;;;;;;;7.20;4.43;;;28.00;99.90;;;;;;8304500;28;20029;-84
2023/07/19 07:37:21;;;;;;;6.30;4.38;;;28.40;99.90;;;;;;8308251;28;20029;-84
2023/07/19 07:41:21;;;;;;;10.20;4.65;;;29.20;99.90;;;;;;8293380;28;20476;-86
2023/07/19 07:45:22;;;;;;;6.28;4.05;;;29.60;99.90;;;;;;8295908;28;20185;-87
2023/07/19 07:49:23;;;;;;;7.90;3.47;;;29.50;99.90;;;;;;8296582;28;20438;-86
2023/07/19 07:53:23;;;;;;;12.55;4.22;;;29.30;99.90;;;;;;8293807;28;20495;-85
2023/07/19 07:57:24;;;;;;;11.75;3.90;;;29.70;99.90;;;;;;8296140;28;20029;-84
2023/07/19 08:01:24;;;;;;;5.90;3.60;;;30.00;99.90;;;;;;8297771;28;20543;-85
2023/07/19 08:05:26;;;;;;;7.60;3.60;;;30.50;99.90;;;;;;8293039;28;20085;-85
2023/07/19 08:09:27;;;;;;;8.18;3.60;;;30.20;99.90;;;;;;8291484;28;20491;-85
2023/07/19 08:13:28;;;;;;;5.70;4.03;;;30.00;97.70;;;;;;8295573;28;20028;-84
2023/07/19 08:17:28;;;;;;;5.78;3.10;;;29.90;98.20;;;;;;8294603;28;20480;-85
2023/07/19 08:21:29;;;;;;;4.80;2.85;;;29.10;97.40;;;;;;8300468;28;20022;-82
2023/07/19 08:25:29;;;;;;;6.18;3.65;;;28.60;99.10;;;;;;8302704;28;20022;-84
2023/07/19 08:29:30;;;;;;;6.60;3.63;;;28.40;99.30;;;;;;8302431;28;20022;-85
2023/07/19 08:33:30;;;;;;;4.80;2.95;;;29.20;99.90;;;;;;8301635;28;20399;-83
2023/07/19 08:37:31;;;;;;;9.30;3.40;;;29.50;96.80;;;;;;8294183;28;20022;-85
2023/07/19 08:41:32;;;;;;;5.63;3.42;;;28.50;99.90;;;;;;8295145;28;20040;-85
2023/07/19 08:45:36;;;;;;;6.70;3.30;;;28.00;99.90;;;;;;8296013;28;20029;-85
2023/07/19 08:49:37;;;;;;;7.35;3.42;;;28.80;99.90;;;;;;8296538;28;20475;-84
2023/07/19 08:53:37;;;;;;;5.68;3.47;;;29.00;97.50;;;;;;8288368;28;20022;-85
2023/07/19 08:57:44;;;;;;;6.20;3.20;;;28.40;97.30;;;;;;8296870;28;20022;-85
2023/07/19 09:01:45;;;;;;;7.25;3.15;;;28.20;95.70;;;;;;8298449;28;20014;-84
2023/07/19 09:05:46;;;;;;;5.93;3.28;;;28.90;95.90;;;;;;8299260;28;20337;-83
2023/07/19 09:09:54;;;;;;;6.85;3.25;;;28.70;95.80;;;;;;8306253;28;20037;-83
2023/07/19 09:13:57;;;;;;;3.17;2.45;;;28.40;95.30;;;;;;8319393;28;20084;-83
2023/07/19 09:18:00;;;;;;;8.68;2.88;;;28.60;92.50;;;;;;8300095;28;20064;-84
2023/07/19 09:22:03;;;;;;;6.75;2.88;;;28.50;94.30;;;;;;8296496;28;20034;-84
2023/07/19 09:26:06;;;;;;;3.58;2.60;;;28.40;93.50;;;;;;8307244;28;20034;-84
2023/07/19 09:30:11;;;;;;;6.78;2.88;;;27.90;94.70;;;;;;8293258;28;20037;-84
2023/07/19 09:34:11;;;;;;;5.85;2.92;;;27.90;98.40;;;;;;8297805;28;20022;-84
2023/07/19 09:38:12;;;;;;;5.15;2.97;;;28.70;95.10;;;;;;8297126;28;20049;-84
2023/07/19 09:42:13;;;;;;;4.95;2.45;;;29.30;93.10;;;;;;8302986;28;20030;-84
2023/07/19 09:46:15;;;;;;;7.90;3.22;;;29.70;90.70;;;;;;8303786;28;20033;-81
2023/07/19 09:50:15;;;;;;;3.75;2.42;;;28.50;95.80;;;;;;8295459;28;20488;-80
2023/07/19 09:54:16;;;;;;;10.27;2.90;;;27.70;95.20;;;;;;8290406;28;20044;-80
2023/07/19 09:58:18;;;;;;;3.65;2.42;;;28.50;96.80;;;;;;8290300;28;20034;-81
2023/07/19 10:02:21;;;;;;;6.82;2.72;;;29.00;96.10;;;;;;8296840;28;20065;-81
2023/07/19 10:06:28;;;;;;;6.53;3.08;;;29.60;96.00;;;;;;8303069;28;20034;-81
2023/07/19 10:10:40;;;;;;;6.75;3.03;;;28.70;94.00;;;;;;8294255;28;20045;-80
2023/07/19 10:15:09;;;;;;;5.22;2.95;;;28.30;95.60;;;;;;8306702;28;20026;-81
2023/07/19 10:19:20;;;;;;;7.28;2.70;;;28.50;95.80;;;;;;8304625;28;20032;-80
2023/07/19 10:23:20;;;;;;;3.60;2.42;;;29.20;95.10;;;;;;8301410;28;20144;-79
2023/07/19 10:27:35;;;;;;;8.73;2.95;;;29.30;91.40;;;;;;8301509;28;20397;-79
2023/07/19 10:31:35;;;;;;;5.97;2.80;;;28.90;90.70;;;;;;8295871;28;20121;-80
2023/07/19 10:35:36;;;;;;;5.35;2.90;;;28.70;93.90;;;;;;8309153;28;20017;-81
2023/07/19 10:39:36;;;;;;;5.20;2.83;;;29.00;94.10;;;;;;8308618;28;20025;-83
2023/07/19 10:43:38;;;;;;;5.50;2.55;;;28.50;91.80;;;;;;8305043;28;20022;-81
2023/07/19 10:47:39;;;;;;;5.13;2.95;;;28.10;94.60;;;;;;8304795;28;20025;-81
2023/07/19 10:51:50;;;;;;;7.68;3.10;;;28.40;93.50;;;;;;8306348;28;20022;-83
2023/07/19 10:55:54;;;;;;;8.20;2.83;;;29.40;95.90;;;;;;8301264;28;20042;-81
2023/07/19 10:59:55;;;;;;;6.35;3.30;;;29.30;92.20;;;;;;8318120;28;20026;-82
2023/07/19 11:04:04;;;;;;;6.38;2.75;;;30.30;92.20;;;;;;8303853;28;20032;-81
2023/07/19 11:08:04;;;;;;;7.38;3.60;;;29.70;93.30;;;;;;8301199;28;20121;-81
2023/07/19 11:12:06;;;;;;;5.32;3.13;;;29.90;92.10;;;;;;8307208;28;20022;-81
2023/07/19 11:16:06;;;;;;;7.47;3.33;;;30.20;92.50;;;;;;8306457;28;20475;-81
2023/07/19 11:20:08;;;;;;;5.18;3.03;;;29.80;92.40;;;;;;8312061;28;20117;-80
2023/07/19 11:24:09;;;;;;;6.28;3.40;;;30.70;90.30;;;;;;8300416;28;20510;-81
2023/07/19 11:28:09;;;;;;;6.47;3.75;;;30.70;94.00;;;;;;8308253;28;20112;-82
2023/07/19 11:32:16;;;;;;;6.03;3.47;;;31.20;90.00;;;;;;8303186;28;20030;-83
2023/07/19 11:36:17;;;;;;;4.50;3.38;;;30.80;92.80;;;;;;8313866;28;20053;-82
2023/07/19 11:40:17;;;;;;;7.28;3.50;;;30.90;92.90;;;;;;8321588;28;20502;-84
2023/07/19 11:44:21;;;;;;;6.72;3.50;;;31.90;93.40;;;;;;8303375;28;20045;-84
2023/07/19 11:48:22;;;;;;;6.88;3.70;;;33.00;87.60;;;;;;8301499;28;20029;-83
2023/07/19 11:52:23;;;;;;;6.57;3.60;;;32.70;82.60;;;;;;8304694;28;20054;-82
2023/07/19 11:56:23;;;;;;;7.32;3.60;;;31.50;89.30;;;;;;8299308;28;20041;-82
2023/07/19 12:00:24;;;;;;;6.57;3.55;;;32.10;90.00;;;;;;8300829;28;20060;-82
2023/07/19 12:04:25;;;;;;;5.28;3.60;;;33.20;87.90;;;;;;8302699;28;20035;-82
2023/07/19 12:08:27;;;;;;;8.32;3.65;;;33.50;79.60;;;;;;8303527;28;20022;-82
2023/07/19 12:12:28;;;;;;;5.70;3.63;;;33.50;78.60;;;;;;8306295;28;20059;-82
2023/07/19 12:16:28;;;;;;;8.25;3.67;;;33.10;87.50;;;;;;8301128;28;20063;-83
2023/07/19 12:20:31;;;;;;;4.70;3.83;;;34.30;76.60;;;;;;8310347;28;20022;-81
2023/07/19 12:24:32;;;;;;;6.97;3.70;;;34.40;74.80;;;;;;8297719;28;20033;-80
2023/07/19 12:28:32;;;;;;;6.68;4.15;;;32.50;79.80;;;;;;8300312;28;20029;-81
2023/07/19 12:32:33;;;;;;;8.95;3.53;;;30.90;85.70;;;;;;8297046;28;20117;-83
2023/07/19 12:36:33;;;;;;;7.63;3.88;;;31.30;87.80;;;;;;8306890;28;20033;-81
2023/07/19 12:40:34;;;;;;;5.50;3.83;;;31.40;84.10;;;;;;8305547;28;20522;-81
2023/07/19 12:44:35;;;;;;;5.78;3.90;;;33.10;80.80;;;;;;8299795;28;20057;-81
2023/07/19 12:48:36;;;;;;;5.20;3.63;;;35.40;79.00;;;;;;8297460;28;20113;-82
2023/07/19 12:52:36;;;;;;;5.03;3.90;;;34.90;72.20;;;;;;8296021;28;20088;-83
2023/07/19 12:56:38;;;;;;;7.03;3.70;;;33.90;90.00;;;;;;8295161;28;20107;-82
2023/07/19 13:00:39;;;;;;;8.63;3.70;;;35.60;82.60;;;;;;8295701;28;20037;-82
2023/07/19 13:04:40;;;;;;;6.18;4.13;;;38.10;64.10;;;;;;8295855;28;20022;-82
2023/07/19 13:08:40;;;;;;;5.78;4.00;;;38.30;65.90;;;;;;8300331;28;20546;-82
2023/07/19 13:12:41;;;;;;;5.30;3.53;;;36.00;72.60;;;;;;8297101;28;20072;-82
2023/07/19 13:16:41;;;;;;;7.72;3.90;;;36.00;66.20;;;;;;8314552;28;20014;-82
2023/07/19 13:20:43;;;;;;;5.97;3.90;;;37.20;67.50;;;;;;8303968;28;20026;-80
2023/07/19 13:24:43;;;;;;;4.85;3.80;;;37.80;60.50;;;;;;8298646;28;20036;-81
2023/07/19 13:28:48;;;;;;;4.10;3.65;;;37.60;53.40;;;;;;8304803;28;20061;-82
2023/07/19 13:32:49;;;;;;;6.45;3.95;;;38.60;54.00;;;;;;8300415;28;20014;-82
2023/07/19 13:36:50;;;;;;;4.25;3.50;;;39.10;51.70;;;;;;8302756;28;20036;-82
2023/07/19 13:40:51;;;;;;;4.13;3.33;;;40.20;50.80;;;;;;8314808;28;20510;-83
2023/07/19 13:44:52;;;;;;;5.63;3.95;;;39.00;47.00;;;;;;8299324;28;20054;-82
2023/07/19 13:48:53;;;;;;;6.72;3.35;;;38.90;51.40;;;;;;8295060;28;20022;-82
2023/07/19 13:52:54;;;;;;;4.72;3.42;;;39.20;47.60;;;;;;8295860;28;20022;-83
2023/07/19 13:56:55;;;;;;;8.73;3.78;;;38.00;50.80;;;;;;8294765;28;20751;-82
2023/07/19 14:00:56;;;;;;;4.43;3.45;;;38.20;54.50;;;;;;8295249;28;20049;-81
2023/07/19 14:04:56;;;;;;;4.65;3.70;;;38.70;47.00;;;;;;8301364;28;20054;-82
2023/07/19 14:08:57;;;;;;;5.50;3.90;;;37.40;48.80;;;;;;8298840;28;20611;-81
2023/07/19 14:12:58;;;;;;;5.00;3.75;;;36.40;54.20;;;;;;8304755;28;20014;-81
2023/07/19 14:16:58;;;;;;;5.93;3.42;;;37.20;48.80;;;;;;8301488;28;20026;-82
2023/07/19 14:20:59;;;;;;;5.93;3.97;;;37.60;47.30;;;;;;8305897;28;20029;-83
2023/07/19 14:24:59;;;;;;;4.85;3.70;;;34.50;51.30;;;;;;8311128;28;20026;-80
2023/07/19 14:29:01;;;;;;;5.68;3.53;;;33.90;54.60;;;;;;8311313;28;20036;-81
2023/07/19 14:33:03;;;;;;;5.50;3.75;;;35.00;52.20;;;;;;8306589;28;20037;-83
2023/07/19 14:37:05;;;;;;;7.55;3.70;;;34.10;59.70;;;;;;8300977;28;20128;-82
2023/07/19 14:41:05;;;;;;;6.28;3.63;;;36.10;53.70;;;;;;8307099;28;20025;-81
2023/07/19 14:45:06;;;;;;;5.57;3.90;;;36.80;50.40;;;;;;8300537;28;20091;-80
2023/07/19 14:49:08;;;;;;;5.90;3.30;;;36.40;54.60;;;;;;8301625;28;20543;-81
2023/07/19 14:53:09;;;;;;;6.00;3.75;;;33.30;54.70;;;;;;8296683;28;20407;-82
2023/07/19 14:57:09;;;;;;;5.90;3.40;;;31.20;59.30;;;;;;8304381;28;20032;-83
2023/07/19 15:01:10;;;;;;;8.63;3.78;;;33.20;58.90;;;;;;8319888;28;20049;-82
2023/07/19 15:05:11;;;;;;;5.30;3.45;;;32.60;61.20;;;;;;8302443;28;20029;-82
2023/07/19 15:09:11;;;;;;;5.80;3.55;;;33.50;58.10;;;;;;8302929;28;20038;-82
2023/07/19 15:13:12;;;;;;;5.75;3.30;;;34.00;55.90;;;;;;8298903;28;20499;-82
2023/07/19 15:17:12;;;;;;;8.57;3.60;;;33.70;59.60;;;;;;8294570;28;20026;-81
2023/07/19 15:21:13;;;;;;;6.53;3.72;;;33.90;57.90;;;;;;8299270;28;20037;-82
2023/07/19 15:25:15;;;;;;;5.18;3.58;;;35.50;56.70;;;;;;8300846;28;20403;-81
2023/07/19 15:29:17;;;;;;;4.25;3.55;;;37.70;55.80;;;;;;8303058;28;20088;-81
2023/07/19 15:33:17;;;;;;;7.97;3.72;;;37.00;55.40;;;;;;8305648;28;20029;-81
2023/07/19 15:37:18;;;;;;;7.72;4.13;;;36.20;54.90;;;;;;8313152;28;20018;-81
2023/07/19 15:41:18;;;;;;;5.85;3.67;;;34.90;57.30;;;;;;8299163;28;20548;-80
2023/07/19 15:45:21;;;;;;;4.95;3.58;;;32.60;62.40;;;;;;8295997;28;20037;-81
2023/07/19 15:49:21;;;;;;;4.50;3.15;;;30.90;66.00;;;;;;8299504;28;20026;-81
2023/07/19 15:53:22;;;;;;;5.10;3.47;;;29.40;69.60;;;;;;8297946;28;20048;-80
2023/07/19 15:57:22;;;;;;;7.45;3.45;;;28.80;74.50;;;;;;8297458;28;20030;-80
2023/07/19 16:01:23;;;;;;;8.40;3.67;;;28.00;75.60;;;;;;8297499;28;20038;-81
2023/07/19 16:05:24;;;;;;;4.60;3.25;;;27.70;79.40;;;;;;8303320;28;20643;-81
2023/07/19 16:09:25;;;;;;;6.15;3.67;;;27.70;78.30;;;;;;8297286;28;20740;-80
2023/07/19 16:13:25;;;;;;;6.30;3.80;;;27.90;78.40;;;;;;8300502;28;20079;-80
2023/07/19 16:17:26;;;;;;;5.45;3.33;;;27.80;78.40;;;;;;8293423;28;20026;-81
2023/07/19 16:21:27;;;;;;;7.93;3.75;;;27.80;79.20;;;;;;8303125;28;20053;-81
2023/07/19 16:25:28;;;;;;;6.15;3.55;;;27.80;78.40;;;;;;8302366;28;20145;-80
2023/07/19 16:29:28;;;;;;;11.05;4.07;;;27.70;78.10;;;;;;8302254;28;20149;-79
2023/07/19 16:33:29;;;;;;;5.45;3.80;;;27.40;84.50;;;;;;8298955;28;20049;-80
2023/07/19 16:37:29;;;;;;;5.28;3.58;;;27.50;81.20;;;;;;8304056;28;20036;-79
2023/07/19 16:41:31;;;;;;;8.10;3.90;;;27.40;83.40;;;;;;8295508;28;20076;-80
2023/07/19 16:45:32;;;;;;;7.25;4.05;;;27.40;84.90;;;;;;8296736;28;20022;-80
2023/07/19 16:49:33;;;;;;;5.68;3.30;;;27.50;85.30;;;;;;8294915;28;20034;-79
2023/07/19 16:53:33;;;;;;;11.27;3.90;;;27.20;81.70;;;;;;8297936;28;20546;-81
2023/07/19 16:57:34;;;;;;;6.05;3.10;;;26.70;81.80;;;;;;8297122;28;20030;-79
2023/07/19 17:01:34;;;;;;;5.10;3.53;;;26.40;80.60;;;;;;8296206;28;20034;-79
2023/07/19 17:05:36;;;;;;;5.28;3.40;;;26.20;82.70;;;;;;8295495;28;20022;-79
2023/07/19 17:09:36;;;;;;;8.50;3.50;;;26.10;82.60;;;;;;8294603;28;20398;-79
2023/07/19 17:13:38;;;;;;;5.13;3.80;;;25.80;83.50;;;;;;8301597;28;20025;-80
2023/07/19 17:17:39;;;;;;;6.07;3.50;;;25.50;86.50;;;;;;8298272;28;20018;-80
2023/07/19 17:21:41;;;;;;;8.18;3.88;;;25.50;87.20;;;;;;8296998;28;20108;-80
2023/07/19 17:25:42;;;;;;;6.75;3.55;;;25.60;87.70;;;;;;8298145;28;20022;-79
2023/07/19 17:29:42;;;;;;;7.40;3.65;;;25.60;86.30;;;;;;8300955;28;20498;-79
2023/07/19 17:33:43;;;;;;;6.10;3.08;;;25.60;86.30;;;;;;8297269;28;20037;-78
2023/07/19 17:37:44;;;;;;;6.10;3.22;;;25.50;85.20;;;;;;8304705;28;20035;-80
2023/07/19 17:41:44;;;;;;;8.68;3.53;;;25.50;86.30;;;;;;8303548;28;20065;-79
2023/07/19 17:45:45;;;;;;;7.88;3.20;;;25.40;86.60;;;;;;8302102;28;20096;-80
2023/07/19 17:49:46;;;;;;;4.82;3.00;;;25.30;86.00;;;;;;8300338;28;20029;-79
2023/07/19 17:53:47;;;;;;;4.68;2.90;;;25.20;88.50;;;;;;8300618;28;20503;-79
2023/07/19 17:57:48;;;;;;;4.18;3.00;;;25.10;90.60;;;;;;8299884;28;20014;-79
2023/07/19 18:01:49;;;;;;;5.00;3.30;;;25.00;88.10;;;;;;8301361;28;20069;-79
2023/07/19 18:05:51;;;;;;;5.70;3.03;;;24.80;90.90;;;;;;8305416;28;20025;-79
2023/07/19 18:09:52;;;;;;;4.40;3.30;;;24.60;89.80;;;;;;8299818;28;20029;-80
2023/07/19 18:13:52;;;;;;;8.15;3.40;;;24.50;90.50;;;;;;8302848;28;20114;-80
2023/07/19 18:17:53;;;;;;;5.07;3.10;;;24.30;91.70;;;;;;8305136;28;20396;-81
2023/07/19 18:21:54;;;;;;;7.00;3.50;;;24.20;91.70;;;;;;8307027;28;20755;-80
2023/07/19 18:25:55;;;;;;;6.15;3.60;;;24.10;92.30;;;;;;8302271;28;20025;-81
2023/07/19 18:29:55;;;;;;;9.95;4.05;;;23.90;93.60;;;;;;8308064;28;20026;-81
2023/07/19 18:33:56;;;;;;;7.45;3.60;;;23.70;93.20;;;;;;8304785;28;20022;-79
2023/07/19 18:37:59;;;;;;;4.82;3.10;;;23.40;93.30;;;;;;8305152;28;20014;-79
2023/07/19 18:42:00;;;;;;;6.07;3.38;;;23.20;94.10;;;;;;8301199;28;20014;-81
2023/07/19 18:46:01;;;;;;;9.75;4.25;;;23.00;95.90;;;;;;8303345;28;20035;-78
2023/07/19 18:50:02;;;;;;;10.98;3.80;;;22.80;95.90;;;;;;8294007;28;20547;-79
2023/07/19 18:54:03;;;;;;;6.22;3.33;;;22.30;97.80;;;;;;8296343;28;20033;-77
2023/07/19 18:58:03;;;;;;;5.57;3.40;;;22.20;98.00;;;;;;8294757;28;20057;-77
2023/07/19 19:02:05;;;;;;;5.65;3.05;;;22.20;98.40;;;;;;8296297;28;20034;-77
2023/07/19 19:06:05;;;;;;;6.50;3.58;;;22.00;98.80;;;;;;8294741;28;20049;-77
2023/07/19 19:10:06;;;;;;;6.50;3.28;;;21.80;99.80;;;;;;8295137;28;20026;-78
2023/07/19 19:14:07;;;;;;;6.72;3.97;;;21.40;99.90;;;;;;8294369;28;20108;-77
2023/07/19 19:18:07;;;;;;;15.82;3.38;;;21.10;99.90;;;;;;8294368;28;20037;-77
2023/07/19 19:22:08;;;;;;;10.63;4.57;;;20.90;99.90;;;;;;8294368;28;20022;-77
2023/07/19 19:26:10;;;;;;;5.30;2.85;;;20.90;99.90;;;;;;8296700;28;20585;-79
2023/07/19 19:30:11;;;;;;;9.60;3.53;;;20.70;99.90;;;;;;8293877;28;20462;-77
2023/07/19 19:34:12;;;;;;;6.80;3.30;;;20.40;99.90;;;;;;8300341;28;20022;-77
2023/07/19 19:38:12;;;;;;;7.22;3.17;;;20.30;99.90;;;;;;8293315;28;20037;-77
2023/07/19 19:42:13;;;;;;;9.63;3.80;;;20.10;99.90;;;;;;8294453;28;20026;-79
2023/07/19 19:46:14;;;;;;;7.57;4.13;;;20.10;99.90;;;;;;8298680;28;20113;-79
2023/07/19 19:50:14;;;;;;;6.47;3.90;;;19.90;99.90;;;;;;8294013;28;20040;-82
2023/07/19 19:54:15;;;;;;;5.55;3.67;;;19.90;99.90;;;;;;8296291;28;20033;-80
2023/07/19 19:58:16;;;;;;;7.72;3.90;;;19.80;99.90;;;;;;8297189;28;20507;-80
2023/07/19 20:02:16;;;;;;;6.13;3.42;;;19.80;99.90;;;;;;8298660;28;20057;-81
2023/07/19 20:06:17;;;;;;;7.70;4.18;;;19.90;99.90;;;;;;8298371;28;20026;-79
2023/07/19 20:10:18;;;;;;;7.13;3.47;;;20.00;99.90;;;;;;8295792;28;20503;-80
2023/07/19 20:14:18;;;;;;;7.38;4.20;;;20.10;99.90;;;;;;8311173;28;20053;-79
2023/07/19 20:18:19;;;;;;;9.80;4.22;;;19.80;99.90;;;;;;8304588;28;20026;-81
2023/07/19 20:22:20;;;;;;;6.07;4.18;;;19.40;99.90;;;;;;8298487;28;20067;-79
2023/07/19 20:26:20;;;;;;;9.38;4.45;;;19.00;99.90;;;;;;8297124;28;20033;-79
2023/07/19 20:30:21;;;;;;;6.75;4.00;;;18.90;99.90;;;;;;8295532;28;20120;-79
2023/07/19 20:34:26;;;;;;;7.45;3.75;;;19.00;99.90;;;;;;8297014;28;20041;-79
2023/07/19 20:38:26;;;;;;;4.55;3.45;;;18.70;99.90;;;;;;8305001;28;20017;-79
2023/07/19 20:42:27;;;;;;;7.75;3.35;;;18.80;99.90;;;;;;8299828;28;20396;-79
2023/07/19 20:46:28;;;;;;;4.95;3.30;;;18.90;99.90;;;;;;8295634;28;20025;-79
2023/07/19 20:50:29;;;;;;;7.03;2.92;;;18.80;99.90;;;;;;8294754;28;20586;-79